Time;durP1;ratioP1;P1;durP2;ratioP2;P2;SDS_P1;SDS_P2;PMS_P1;PMS_P2;Temp;Humidity;BMP_temperature;BMP_pressure;BME280_temperature;BME280_humidity;BME280_pressure;Samples;Min_cycle;Max_cycle;Signal;HPM_P1;HPM_P2
2022/09/24 00:00:40;;;;;;;7.13;4.93;;;;;;;14.46;100.00;96382.91;4907643;29;20598;-57
2022/09/24 00:03:06;;;;;;;5.80;5.40;;;;;;;14.49;100.00;96385.22;4906627;29;20676;-56
2022/09/24 00:05:37;;;;;;;6.03;4.97;;;;;;;14.51;100.00;96385.91;4907107;29;20295;-57
2022/09/24 00:08:03;;;;;;;5.70;5.10;;;;;;;14.54;100.00;96380.22;4908457;29;20200;-57
2022/09/24 00:10:30;;;;;;;5.57;5.17;;;;;;;14.54;100.00;96371.41;4907519;29;20299;-57
2022/09/24 00:12:58;;;;;;;7.13;5.40;;;;;;;14.54;100.00;96372.25;4906821;29;20291;-57
2022/09/24 00:15:24;;;;;;;5.30;4.87;;;;;;;14.55;100.00;96365.91;4906416;29;20233;-58
2022/09/24 00:17:51;;;;;;;6.23;4.70;;;;;;;14.54;100.00;96363.41;4908389;29;20723;-56
2022/09/24 00:20:18;;;;;;;5.07;4.53;;;;;;;14.62;100.00;96356.25;4908820;29;20214;-57
2022/09/24 00:22:44;;;;;;;4.73;4.30;;;;;;;14.63;100.00;96355.22;4920397;29;20248;-57
2022/09/24 00:27:55;;;;;;;6.63;4.40;;;;;;;14.68;100.00;96352.03;4910081;29;20211;-58
2022/09/24 00:30:23;;;;;;;4.57;4.20;;;;;;;14.71;100.00;96365.81;4908955;29;20218;-58
2022/09/24 00:32:50;;;;;;;4.67;4.20;;;;;;;14.73;100.00;96361.16;4909172;29;20246;-56
2022/09/24 00:35:17;;;;;;;5.30;4.37;;;;;;;14.73;100.00;96361.16;4908965;29;20308;-55
2022/09/24 00:37:44;;;;;;;4.97;4.47;;;;;;;14.75;100.00;96361.81;4909424;29;20199;-55
2022/09/24 00:40:10;;;;;;;5.00;4.60;;;;;;;14.76;100.00;96363.47;4908075;29;20295;-55
2022/09/24 00:42:37;;;;;;;4.77;4.40;;;;;;;14.80;100.00;96364.78;4907449;29;20315;-55
2022/09/24 00:45:04;;;;;;;5.00;4.57;;;;;;;14.87;100.00;96362.25;4907205;29;20323;-55
2022/09/24 00:47:37;;;;;;;4.80;4.40;;;;;;;14.91;100.00;96368.88;4906643;29;20608;-55
2022/09/24 00:50:15;;;;;;;4.90;4.60;;;;;;;14.93;100.00;96369.50;4906950;29;20537;-55
2022/09/24 00:52:46;;;;;;;5.90;5.30;;;;;;;14.95;100.00;96371.00;4907305;29;20193;-55
2022/09/24 00:55:13;;;;;;;5.13;4.63;;;;;;;14.95;100.00;96381.63;4907613;29;20196;-56
2022/09/24 00:57:40;;;;;;;5.55;4.88;;;;;;;14.99;100.00;96378.63;4906887;29;20621;-56
2022/09/24 01:00:08;;;;;;;8.57;6.20;;;;;;;15.07;100.00;96389.22;4907122;29;20231;-56
2022/09/24 01:02:37;;;;;;;6.40;5.80;;;;;;;15.14;100.00;96393.66;4906825;29;20217;-56
2022/09/24 01:05:05;;;;;;;6.47;5.97;;;;;;;15.19;100.00;96393.16;4907135;29;20223;-57
2022/09/24 01:07:31;;;;;;;5.87;5.47;;;;;;;15.09;100.00;96382.72;4906657;29;20295;-57
2022/09/24 01:09:58;;;;;;;6.63;5.30;;;;;;;15.04;100.00;96386.91;4906033;29;20239;-55
2022/09/24 01:12:32;;;;;;;7.50;6.13;;;;;;;14.99;100.00;96367.97;4909700;29;20231;-56
2022/09/24 01:15:08;;;;;;;8.20;6.53;;;;;;;14.96;100.00;96358.50;4914813;29;20241;-56
2022/09/24 01:17:41;;;;;;;6.07;5.57;;;;;;;14.92;100.00;96350.03;4926027;29;20204;-56
2022/09/24 01:20:28;;;;;;;6.37;5.87;;;;;;;14.89;100.00;96337.09;4924513;29;20596;-55
2022/09/24 01:23:12;;;;;;;6.67;6.07;;;;;;;14.82;100.00;96330.81;4926817;29;20224;-56
2022/09/24 01:25:42;;;;;;;6.87;6.00;;;;;;;14.78;100.00;96334.00;4932512;29;20176;-57
2022/09/24 01:28:31;;;;;;;7.37;6.30;;;;;;;14.75;100.00;96331.69;4931650;29;20204;-56
2022/09/24 01:31:05;;;;;;;6.30;5.70;;;;;;;14.72;100.00;96340.03;4922869;29;20238;-59
2022/09/24 01:33:33;;;;;;;7.47;6.47;;;;;;;14.70;100.00;96332.22;4920290;29;20196;-56
2022/09/24 01:36:07;;;;;;;7.97;6.50;;;;;;;14.68;100.00;96342.22;4918281;29;20295;-56
2022/09/24 01:38:37;;;;;;;7.90;5.97;;;;;;;14.66;100.00;96346.06;4923532;29;20665;-56
2022/09/24 01:41:06;;;;;;;7.77;7.07;;;;;;;14.70;100.00;96348.19;4914625;29;20338;-56
2022/09/24 01:43:33;;;;;;;7.60;6.80;;;;;;;14.68;100.00;96344.06;4907099;29;20224;-56
2022/09/24 01:46:05;;;;;;;7.17;6.67;;;;;;;14.65;100.00;96345.25;4919300;29;20239;-56
2022/09/24 01:48:33;;;;;;;7.13;6.53;;;;;;;14.65;100.00;96342.56;4928119;29;20298;-55
2022/09/24 01:51:03;;;;;;;7.47;6.90;;;;;;;14.63;100.00;96352.56;4918714;29;20235;-56
2022/09/24 01:53:31;;;;;;;7.97;7.27;;;;;;;14.61;100.00;96354.56;4906529;29;20283;-56
2022/09/24 01:56:00;;;;;;;7.10;6.40;;;;;;;14.62;100.00;96355.41;4905798;29;20210;-57
2022/09/24 01:58:30;;;;;;;7.63;6.93;;;;;;;14.59;100.00;96355.75;4906794;29;20466;-56
2022/09/24 02:00:59;;;;;;;7.90;7.20;;;;;;;14.59;100.00;96351.28;4905710;29;20213;-57
2022/09/24 02:03:29;;;;;;;7.27;6.67;;;;;;;14.61;100.00;96354.56;4906178;29;20767;-57
2022/09/24 02:05:59;;;;;;;7.47;6.77;;;;;;;14.62;100.00;96345.59;4890387;29;20323;-57
2022/09/24 02:08:30;;;;;;;7.60;6.90;;;;;;;14.58;100.00;96333.63;4906371;29;20271;-57
2022/09/24 02:11:01;;;;;;;6.90;6.20;;;;;;;14.60;100.00;96328.13;4906101;29;20303;-57
2022/09/24 02:13:31;;;;;;;7.63;6.90;;;;;;;14.57;100.00;96312.50;4905907;29;20234;-56
2022/09/24 02:16:00;;;;;;;7.77;6.90;;;;;;;14.57;100.00;96312.50;4905963;29;20311;-55
2022/09/24 02:18:31;;;;;;;6.97;6.37;;;;;;;14.54;100.00;96321.69;4906057;29;20209;-56
2022/09/24 02:20:59;;;;;;;7.13;6.33;;;;;;;14.61;100.00;96300.50;4906651;29;20219;-56
2022/09/24 02:23:26;;;;;;;6.90;6.23;;;;;;;14.60;100.00;96304.16;4906450;29;20231;-56
2022/09/24 02:25:56;;;;;;;7.00;6.40;;;;;;;14.52;100.00;96302.41;4905738;29;20235;-56
2022/09/24 02:28:24;;;;;;;6.80;6.20;;;;;;;14.53;100.00;96298.72;4906407;29;20205;-56
2022/09/24 02:30:54;;;;;;;7.40;6.37;;;;;;;14.47;100.00;96288.78;4905855;29;20288;-56
2022/09/24 02:36:07;;;;;;;7.10;6.40;;;;;;;14.40;100.00;96272.72;4905339;29;20207;-56
2022/09/24 02:38:36;;;;;;;6.83;6.23;;;;;;;14.36;100.00;96273.22;4905872;29;20204;-57
2022/09/24 02:41:02;;;;;;;6.03;5.63;;;;;;;14.32;100.00;96291.34;4905546;29;20240;-57
2022/09/24 02:43:29;;;;;;;6.30;5.70;;;;;;;14.30;100.00;96295.19;4906039;29;20228;-56
2022/09/24 02:45:55;;;;;;;5.73;5.17;;;;;;;14.28;100.00;96278.56;4905208;29;20264;-57
2022/09/24 02:48:22;;;;;;;6.30;5.80;;;;;;;14.26;100.00;96264.63;4906173;29;20521;-55
2022/09/24 02:50:50;;;;;;;6.43;5.50;;;;;;;14.22;100.00;96258.81;4905009;29;20229;-56
2022/09/24 02:53:18;;;;;;;5.73;5.23;;;;;;;14.22;100.00;96258.00;4906146;29;20310;-56
2022/09/24 02:55:44;;;;;;;5.97;5.37;;;;;;;14.21;100.00;96264.28;4905246;29;20239;-56
2022/09/24 02:58:11;;;;;;;5.70;5.30;;;;;;;14.23;100.00;96270.28;4905462;29;20666;-55
2022/09/24 03:00:38;;;;;;;6.90;5.80;;;;;;;14.16;100.00;96272.81;4906020;29;20215;-57
2022/09/24 03:03:04;;;;;;;5.80;5.40;;;;;;;14.17;100.00;96271.00;4905823;29;20324;-55
2022/09/24 03:05:31;;;;;;;5.40;4.80;;;;;;;14.13;100.00;96273.19;4905356;29;20950;-56
2022/09/24 03:07:58;;;;;;;4.90;4.47;;;;;;;14.13;100.00;96267.03;4905877;29;20464;-55
2022/09/24 03:10:26;;;;;;;5.00;4.50;;;;;;;14.12;100.00;96262.69;4905417;29;20212;-57
2022/09/24 03:12:53;;;;;;;4.87;4.47;;;;;;;14.10;100.00;96264.72;4905446;29;20307;-57
2022/09/24 03:15:19;;;;;;;4.60;4.30;;;;;;;14.07;100.00;96265.88;4905322;29;20212;-57
2022/09/24 03:17:46;;;;;;;4.93;4.53;;;;;;;14.08;100.00;96266.69;4905342;29;20240;-56
2022/09/24 03:20:12;;;;;;;5.57;5.07;;;;;;;14.04;100.00;96274.19;4904776;29;20291;-56
2022/09/24 03:22:39;;;;;;;5.60;5.10;;;;;;;14.05;100.00;96277.69;4905626;29;20216;-58
2022/09/24 03:25:06;;;;;;;5.40;5.00;;;;;;;14.00;100.00;96282.69;4905362;29;20238;-56
2022/09/24 03:27:34;;;;;;;6.27;5.67;;;;;;;14.00;100.00;96290.66;4905457;29;20215;-56
2022/09/24 03:32:45;;;;;;;6.43;5.83;;;;;;;14.01;100.00;96294.97;4905917;29;20222;-56
2022/09/24 03:35:11;;;;;;;5.37;4.97;;;;;;;14.02;100.00;96284.19;4908288;29;20694;-56
2022/09/24 03:37:41;;;;;;;5.70;5.10;;;;;;;14.00;100.00;96290.66;4908800;29;20315;-56
2022/09/24 03:40:08;;;;;;;5.13;4.70;;;;;;;13.99;100.00;96283.72;4915934;29;20215;-55
2022/09/24 03:42:36;;;;;;;4.53;4.20;;;;;;;13.95;100.00;96293.84;4931709;29;20204;-56
2022/09/24 03:45:04;;;;;;;5.10;4.70;;;;;;;13.93;100.00;96288.69;4930854;29;20223;-56
2022/09/24 03:47:30;;;;;;;4.50;4.20;;;;;;;13.96;100.00;96287.50;4922413;29;20207;-56
2022/09/24 03:49:57;;;;;;;4.80;4.50;;;;;;;13.92;100.00;96284.38;4910715;29;20209;-56
2022/09/24 03:52:24;;;;;;;4.50;4.10;;;;;;;13.92;100.00;96278.25;4909203;29;20236;-56
2022/09/24 03:54:51;;;;;;;4.60;4.20;;;;;;;13.91;100.00;96284.56;4908732;29;20551;-56
2022/09/24 03:57:18;;;;;;;4.30;4.00;;;;;;;13.90;100.00;96281.06;4908910;29;20287;-55
2022/09/24 03:59:46;;;;;;;4.43;3.60;;;;;;;13.90;100.00;96285.56;4908979;29;20200;-56
2022/09/24 04:02:13;;;;;;;4.67;4.13;;;;;;;13.91;100.00;96289.88;4908936;29;20239;-56
2022/09/24 04:04:39;;;;;;;4.63;4.30;;;;;;;13.87;100.00;96286.75;4908694;29;20326;-57
2022/09/24 04:07:06;;;;;;;4.20;3.90;;;;;;;13.88;100.00;96277.78;4908715;29;20287;-55
2022/09/24 04:09:33;;;;;;;4.70;4.30;;;;;;;13.88;100.00;96284.91;4908340;29;20213;-55
2022/09/24 04:11:59;;;;;;;4.50;4.10;;;;;;;13.85;100.00;96280.75;4908270;29;20319;-56
2022/09/24 04:14:26;;;;;;;5.87;4.40;;;;;;;13.84;100.00;96287.09;4909038;29;20243;-55
2022/09/24 04:16:54;;;;;;;5.23;4.70;;;;;;;13.85;100.00;96283.41;4907587;29;20725;-56
2022/09/24 04:19:21;;;;;;;4.73;4.43;;;;;;;13.90;100.00;96289.03;4908447;29;20289;-57
2022/09/24 04:21:48;;;;;;;5.33;4.87;;;;;;;13.89;100.00;96282.06;4908246;29;20236;-56
2022/09/24 04:24:14;;;;;;;5.17;4.67;;;;;;;13.89;100.00;96287.38;4908186;29;20359;-56
2022/09/24 04:26:41;;;;;;;5.50;5.00;;;;;;;13.90;100.00;96289.03;4907977;29;20211;-55
2022/09/24 04:29:08;;;;;;;5.90;5.30;;;;;;;13.92;100.00;96289.69;4908593;29;20299;-57
2022/09/24 04:31:34;;;;;;;5.50;5.10;;;;;;;13.93;100.00;96280.72;4907641;29;20598;-56
2022/09/24 04:34:04;;;;;;;5.77;5.37;;;;;;;13.91;100.00;96287.22;4907737;29;20303;-56
2022/09/24 04:36:31;;;;;;;6.23;5.33;;;;;;;13.90;100.00;96291.69;4907855;29;20319;-56
2022/09/24 04:38:58;;;;;;;5.97;5.47;;;;;;;13.94;100.00;96292.19;4907782;29;20667;-56
2022/09/24 04:41:25;;;;;;;6.17;5.60;;;;;;;13.87;100.00;96296.53;4908009;29;20343;-57
2022/09/24 04:43:53;;;;;;;6.23;5.83;;;;;;;13.84;100.00;96292.41;4907295;29;21505;-56
2022/09/24 04:46:19;;;;;;;5.93;5.33;;;;;;;13.86;100.00;96294.88;4906529;29;20201;-56
2022/09/24 04:48:46;;;;;;;6.13;5.53;;;;;;;13.87;100.00;96300.03;4907818;29;20315;-56
2022/09/24 04:51:15;;;;;;;7.27;5.40;;;;;;;13.91;100.00;96308.50;4907263;29;20218;-56
2022/09/24 04:53:42;;;;;;;6.53;5.93;;;;;;;13.87;100.00;96302.69;4907665;29;20295;-56
2022/09/24 04:56:10;;;;;;;6.20;5.70;;;;;;;13.89;100.00;96299.84;4907711;29;20275;-57
2022/09/24 04:58:37;;;;;;;5.80;5.40;;;;;;;13.91;100.00;96304.00;4907316;29;20264;-57
2022/09/24 05:01:06;;;;;;;5.70;5.20;;;;;;;13.90;100.00;96304.16;4907279;29;20741;-56
2022/09/24 05:03:33;;;;;;;5.50;4.97;;;;;;;13.84;100.00;96303.03;4907286;29;20228;-55
2022/09/24 05:06:00;;;;;;;6.03;5.47;;;;;;;13.87;100.00;96301.84;4907042;29;20724;-56
2022/09/24 05:08:28;;;;;;;6.07;5.57;;;;;;;13.86;100.00;96298.34;4907464;29;20223;-56
2022/09/24 05:10:55;;;;;;;5.57;5.10;;;;;;;13.87;100.00;96302.69;4906638;29;20227;-56
2022/09/24 05:13:22;;;;;;;6.23;5.73;;;;;;;13.85;100.00;96294.03;4906668;29;20288;-55
2022/09/24 05:15:49;;;;;;;6.27;5.67;;;;;;;13.81;100.00;96303.38;4907361;29;20296;-56
2022/09/24 05:18:16;;;;;;;6.00;5.53;;;;;;;13.78;100.00;96298.38;4907031;29;20240;-56
2022/09/24 05:20:42;;;;;;;6.40;5.80;;;;;;;13.76;100.00;96300.38;4908857;29;20208;-56
2022/09/24 05:23:09;;;;;;;6.30;5.80;;;;;;;13.74;100.00;96304.22;4913231;29;20211;-56
2022/09/24 05:27:07;;;;;;;5.97;5.47;;;;;;;13.76;100.00;96305.72;4909424;29;20956;-55
2022/09/24 05:28:22;;;;;;;6.20;5.70;;;;;;;13.69;100.00;96310.03;4908716;29;20222;-56
2022/09/24 05:30:49;;;;;;;6.40;5.90;;;;;;;13.70;100.00;96316.19;4910282;29;20609;-57
2022/09/24 05:33:16;;;;;;;6.53;5.67;;;;;;;13.69;100.00;96312.69;4913496;29;20200;-56
2022/09/24 05:35:43;;;;;;;6.07;5.47;;;;;;;13.68;100.00;96318.19;4907643;29;20214;-56
2022/09/24 05:38:09;;;;;;;5.57;5.17;;;;;;;13.72;100.00;96330.13;4908373;29;20303;-56
2022/09/24 05:40:49;;;;;;;6.03;5.53;;;;;;;13.72;100.00;96324.81;4927556;29;20204;-56
2022/09/24 05:43:18;;;;;;;5.63;5.20;;;;;;;13.72;100.00;96324.81;4930904;29;20195;-56
2022/09/24 05:45:44;;;;;;;6.17;5.57;;;;;;;13.71;100.00;96317.84;4928920;29;20642;-55
2022/09/24 05:48:12;;;;;;;6.07;5.47;;;;;;;13.68;100.00;96324.31;4910796;29;20661;-58
2022/09/24 05:50:38;;;;;;;5.37;4.97;;;;;;;13.67;100.00;96330.66;4907567;29;20222;-56
2022/09/24 05:53:05;;;;;;;5.70;5.30;;;;;;;13.66;100.00;96333.47;4907605;29;20243;-56
2022/09/24 05:55:32;;;;;;;5.50;5.00;;;;;;;13.73;100.00;96331.78;4907417;29;20222;-56
2022/09/24 05:58:04;;;;;;;5.60;4.90;;;;;;;13.73;100.00;96337.94;4906452;29;20296;-56
2022/09/24 06:00:31;;;;;;;6.00;5.47;;;;;;;13.70;100.00;96332.97;4911980;29;20223;-55
2022/09/24 06:03:02;;;;;;;5.73;5.23;;;;;;;13.68;100.00;96334.94;4928523;29;20237;-56
2022/09/24 06:05:29;;;;;;;6.17;5.57;;;;;;;13.69;100.00;96327.81;4929320;29;20288;-57
2022/09/24 06:07:56;;;;;;;5.20;4.80;;;;;;;13.72;100.00;96330.13;4920938;29;20205;-56
2022/09/24 06:10:24;;;;;;;6.40;5.90;;;;;;;13.68;100.00;96329.63;4914894;29;20231;-56
2022/09/24 06:12:52;;;;;;;5.70;5.20;;;;;;;13.70;100.00;96332.97;4911744;29;20261;-55
2022/09/24 06:15:20;;;;;;;5.87;5.33;;;;;;;13.68;100.00;96329.63;4908122;29;20665;-56
2022/09/24 06:17:47;;;;;;;6.03;5.07;;;;;;;13.68;100.00;96326.97;4909503;29;20215;-56
2022/09/24 06:20:14;;;;;;;5.83;5.43;;;;;;;13.69;100.00;96326.00;4908165;29;20268;-55
2022/09/24 06:22:41;;;;;;;6.00;5.50;;;;;;;13.73;100.00;96329.97;4908005;29;20629;-57
2022/09/24 06:25:09;;;;;;;6.00;5.50;;;;;;;13.73;100.00;96321.16;4908486;29;20232;-56
2022/09/24 06:27:35;;;;;;;6.73;6.07;;;;;;;13.74;100.00;96333.47;4908632;29;20244;-56
2022/09/24 06:30:02;;;;;;;6.47;5.87;;;;;;;13.76;100.00;96332.28;4906917;29;20216;-56
2022/09/24 06:32:33;;;;;;;6.70;6.10;;;;;;;13.76;100.00;96329.63;4906979;29;20232;-56
2022/09/24 06:35:00;;;;;;;6.33;5.83;;;;;;;13.83;100.00;96330.59;4905843;29;20276;-56
2022/09/24 06:37:28;;;;;;;6.27;5.67;;;;;;;13.81;100.00;96332.63;4906278;29;20295;-56
2022/09/24 06:39:54;;;;;;;5.63;5.23;;;;;;;13.82;100.00;96331.59;4905458;29;20299;-56
2022/09/24 06:42:21;;;;;;;6.43;5.83;;;;;;;13.85;100.00;96333.91;4906026;29;20295;-56
2022/09/24 06:44:47;;;;;;;6.07;5.47;;;;;;;13.88;100.00;96336.25;4905686;29;20318;-56
2022/09/24 06:47:14;;;;;;;6.27;5.77;;;;;;;13.90;100.00;96334.25;4908010;29;20307;-56
2022/09/24 06:49:42;;;;;;;6.20;5.70;;;;;;;13.90;100.00;96336.91;4906192;29;20295;-56
2022/09/24 06:52:10;;;;;;;5.83;5.33;;;;;;;13.93;100.00;96338.38;4906859;29;20263;-56
2022/09/24 06:54:37;;;;;;;5.43;5.03;;;;;;;13.94;100.00;96335.56;4906158;29;20653;-56
2022/09/24 06:57:06;;;;;;;5.67;5.23;;;;;;;13.96;100.00;96341.53;4906563;29;20518;-56
2022/09/24 06:59:33;;;;;;;5.53;5.10;;;;;;;13.96;100.00;96336.19;4905681;29;20272;-56
2022/09/24 07:01:59;;;;;;;5.53;5.07;;;;;;;13.98;100.00;96340.53;4906258;29;20213;-55
2022/09/24 07:04:26;;;;;;;5.40;5.00;;;;;;;13.99;100.00;96336.88;4906673;29;20357;-57
2022/09/24 07:09:40;;;;;;;6.77;6.07;;;;;;;13.96;100.00;96338.84;4908307;29;20955;-54
2022/09/24 07:12:07;;;;;;;7.00;6.40;;;;;;;13.98;100.00;96338.69;4909809;29;20640;-56
2022/09/24 07:14:34;;;;;;;7.30;6.73;;;;;;;13.99;100.00;96343.03;4909326;29;20223;-56
2022/09/24 07:17:01;;;;;;;6.20;5.70;;;;;;;13.99;100.00;96339.53;4893019;29;20560;-55
2022/09/24 07:19:28;;;;;;;5.53;5.13;;;;;;;14.05;100.00;96338.84;4909961;29;20204;-56
2022/09/24 07:21:56;;;;;;;6.30;5.80;;;;;;;14.04;100.00;96347.81;4909753;29;20295;-56
2022/09/24 07:24:23;;;;;;;6.13;5.40;;;;;;;14.05;100.00;96347.66;4909150;29;20223;-56
2022/09/24 07:26:49;;;;;;;6.40;5.90;;;;;;;14.06;100.00;96349.31;4909591;29;20227;-56
2022/09/24 07:29:16;;;;;;;6.50;5.90;;;;;;;14.06;100.00;96351.13;4909152;29;20660;-57
2022/09/24 07:31:43;;;;;;;6.30;5.77;;;;;;;14.09;100.00;96356.94;4908634;29;20263;-55
2022/09/24 07:34:09;;;;;;;6.00;5.60;;;;;;;14.11;100.00;96357.59;4909065;29;20628;-56
2022/09/24 07:36:36;;;;;;;5.93;5.43;;;;;;;14.16;100.00;96359.75;4910207;29;20244;-56
2022/09/24 07:39:04;;;;;;;5.83;5.33;;;;;;;14.17;100.00;96358.75;4909048;29;20271;-55
2022/09/24 07:41:31;;;;;;;6.13;5.67;;;;;;;14.19;100.00;96359.41;4909481;29;20291;-55
2022/09/24 07:43:58;;;;;;;5.90;5.50;;;;;;;14.19;100.00;96359.41;4908545;29;20208;-55
2022/09/24 07:46:25;;;;;;;5.83;5.43;;;;;;;14.23;100.00;96360.72;4908842;29;20273;-56
2022/09/24 07:48:54;;;;;;;6.57;6.07;;;;;;;14.28;100.00;96363.66;4908453;29;20212;-56
2022/09/24 07:51:21;;;;;;;7.07;6.37;;;;;;;14.37;100.00;96360.84;4908225;29;20316;-56
2022/09/24 07:53:48;;;;;;;7.37;6.83;;;;;;;14.47;100.00;96357.97;4909100;29;20281;-55
2022/09/24 07:56:16;;;;;;;7.30;6.60;;;;;;;14.54;100.00;96358.09;4908949;29;20585;-56
2022/09/24 07:58:43;;;;;;;6.37;5.97;;;;;;;14.59;100.00;96364.56;4909249;29;20224;-56
2022/09/24 08:01:09;;;;;;;7.57;6.50;;;;;;;14.65;100.00;96363.88;4907933;29;21436;-55
2022/09/24 08:03:36;;;;;;;6.73;6.07;;;;;;;14.64;100.00;96370.19;4908633;29;20282;-56
2022/09/24 08:06:04;;;;;;;5.97;5.47;;;;;;;14.71;100.00;96367.66;4908319;29;20255;-54
2022/09/24 08:08:30;;;;;;;6.33;5.83;;;;;;;14.70;100.00;96368.69;4907215;29;20302;-56
2022/09/24 08:10:57;;;;;;;5.77;5.27;;;;;;;14.72;100.00;96367.47;4907901;29;20288;-55
2022/09/24 08:13:25;;;;;;;5.97;5.47;;;;;;;14.78;100.00;96376.59;4907308;29;20240;-55
2022/09/24 08:15:57;;;;;;;6.20;5.70;;;;;;;14.77;100.00;96370.44;4907868;29;20882;-55
2022/09/24 08:18:24;;;;;;;6.30;5.80;;;;;;;14.79;100.00;96370.28;4908159;29;20615;-55
2022/09/24 08:20:52;;;;;;;5.53;5.13;;;;;;;14.83;100.00;96359.09;4918842;29;20263;-54
2022/09/24 08:23:19;;;;;;;9.10;5.70;;;;;;;14.89;100.00;96374.38;4922626;29;20231;-54
2022/09/24 08:25:46;;;;;;;5.37;4.83;;;;;;;14.96;100.00;96371.81;4929363;29;20275;-59
2022/09/24 08:28:15;;;;;;;5.03;4.70;;;;;;;14.98;100.00;96371.66;4920142;29;20691;-56
2022/09/24 08:30:46;;;;;;;5.07;4.77;;;;;;;15.02;100.00;96367.66;4915484;29;20272;-56
2022/09/24 08:33:14;;;;;;;4.43;4.13;;;;;;;15.07;100.00;96375.91;4910343;29;20295;-54
2022/09/24 08:35:40;;;;;;;4.87;4.57;;;;;;;15.07;100.00;96373.25;4911314;29;20211;-61
2022/09/24 08:38:08;;;;;;;5.00;4.50;;;;;;;15.09;100.00;96376.59;4911055;29;20247;-56
2022/09/24 08:40:39;;;;;;;4.60;4.30;;;;;;;15.14;100.00;96376.84;4909897;29;20215;-57
2022/09/24 08:43:12;;;;;;;4.13;3.83;;;;;;;15.14;100.00;96377.69;4908395;29;20207;-55
2022/09/24 08:48:31;;;;;;;4.20;3.90;;;;;;;15.11;100.00;96369.22;4908587;29;20211;-56
2022/09/24 08:51:01;;;;;;;4.30;3.90;;;;;;;15.07;100.00;96367.91;4907789;29;20230;-56
2022/09/24 08:53:41;;;;;;;4.77;4.17;;;;;;;15.08;100.00;96366.94;4907871;29;20219;-57
2022/09/24 08:56:08;;;;;;;4.33;4.00;;;;;;;15.04;100.00;96365.63;4908268;29;20300;-56
2022/09/24 08:58:40;;;;;;;4.43;4.13;;;;;;;15.13;100.00;96359.22;4909020;29;20271;-61
2022/09/24 09:01:16;;;;;;;4.47;4.07;;;;;;;15.09;100.00;96360.59;4909618;29;20189;-55
2022/09/24 09:03:46;;;;;;;4.60;4.27;;;;;;;15.13;100.00;96359.22;4911934;29;20646;-55
2022/09/24 09:06:28;;;;;;;4.10;3.80;;;;;;;15.16;100.00;96358.88;4914281;29;20262;-55
2022/09/24 09:09:00;;;;;;;4.70;4.30;;;;;;;15.18;100.00;96371.00;4926809;29;20204;-55
2022/09/24 09:11:30;;;;;;;5.10;4.70;;;;;;;15.17;100.00;96365.84;4926842;29;20537;-56
2022/09/24 09:13:59;;;;;;;4.87;4.57;;;;;;;15.12;100.00;96363.72;4930134;29;20208;-56
2022/09/24 09:16:29;;;;;;;5.30;4.90;;;;;;;15.06;100.00;96368.91;4927320;29;20653;-56
2022/09/24 09:19:02;;;;;;;5.50;5.00;;;;;;;15.14;100.00;96371.53;4923227;29;20238;-56
2022/09/24 09:21:32;;;;;;;4.80;4.50;;;;;;;15.17;100.00;96365.84;4924245;29;20215;-57
2022/09/24 09:23:59;;;;;;;5.33;4.67;;;;;;;15.22;100.00;96369.66;4923564;29;20200;-56
2022/09/24 09:26:26;;;;;;;5.00;4.60;;;;;;;15.21;100.00;96372.47;4915715;29;20256;-56
2022/09/24 09:28:56;;;;;;;8.03;7.27;;;;;;;15.25;100.00;96373.78;4918371;29;20283;-56
2022/09/24 09:31:33;;;;;;;7.10;6.43;;;;;;;15.26;100.00;96372.78;4907415;29;20239;-56
2022/09/24 09:34:11;;;;;;;5.87;4.90;;;;;;;15.24;100.00;96375.63;4907068;29;20231;-55
2022/09/24 09:36:54;;;;;;;5.13;4.70;;;;;;;15.21;100.00;96377.81;4906631;29;20214;-54
2022/09/24 09:39:36;;;;;;;4.50;4.17;;;;;;;15.19;100.00;96369.19;4906511;29;20204;-55
2022/09/24 09:42:09;;;;;;;3.92;3.40;;;;;;;15.13;100.00;96369.88;4907030;29;20203;-56
2022/09/24 09:44:40;;;;;;;3.90;3.40;;;;;;;15.09;100.00;96364.06;4905463;29;20268;-55
2022/09/24 09:47:17;;;;;;;3.65;3.40;;;;;;;15.14;100.00;96376.84;4906987;29;20220;-55
2022/09/24 09:49:45;;;;;;;3.63;3.33;;;;;;;15.11;100.00;96377.22;4905934;29;20297;-56
2022/09/24 09:52:15;;;;;;;3.73;3.43;;;;;;;15.10;100.00;96372.88;4906833;29;20224;-54
2022/09/24 09:54:42;;;;;;;3.70;3.40;;;;;;;15.10;100.00;96372.88;4905784;29;20212;-55
2022/09/24 09:57:13;;;;;;;3.43;3.13;;;;;;;15.08;100.00;96372.25;4906914;29;20348;-56
2022/09/24 09:59:40;;;;;;;4.00;3.70;;;;;;;15.14;100.00;96371.53;4906300;29;20271;-56
2022/09/24 10:02:15;;;;;;;3.90;3.70;;;;;;;15.15;100.00;96378.53;4905769;29;20303;-55
2022/09/24 10:04:43;;;;;;;3.33;3.03;;;;;;;15.17;100.00;96379.16;4905094;29;20208;-56
2022/09/24 10:07:11;;;;;;;4.47;4.17;;;;;;;15.22;100.00;96374.13;4905554;29;20204;-55
2022/09/24 10:09:39;;;;;;;3.87;3.57;;;;;;;15.24;100.00;96377.44;4906604;29;20300;-56
2022/09/24 10:12:12;;;;;;;3.63;3.43;;;;;;;15.16;100.00;96375.66;4905780;29;20210;-55
2022/09/24 10:14:39;;;;;;;3.60;3.30;;;;;;;15.22;100.00;96374.97;4906443;29;20302;-56
2022/09/24 10:17:05;;;;;;;3.97;3.67;;;;;;;15.16;100.00;96375.66;4906007;29;20291;-56
2022/09/24 10:19:35;;;;;;;3.70;3.47;;;;;;;15.11;100.00;96374.56;4905834;29;20315;-54
2022/09/24 10:22:09;;;;;;;3.93;3.63;;;;;;;15.12;100.00;96381.53;4906295;29;20283;-55
2022/09/24 10:24:36;;;;;;;3.58;3.28;;;;;;;15.12;100.00;96384.22;4906334;29;20300;-56
2022/09/24 10:27:11;;;;;;;3.97;3.67;;;;;;;15.05;100.00;96377.94;4905685;29;20336;-56
2022/09/24 10:32:24;;;;;;;4.70;3.70;;;;;;;15.03;100.00;96366.63;4905742;29;20561;-56
2022/09/24 10:34:59;;;;;;;3.57;3.27;;;;;;;15.04;100.00;96370.94;4905464;29;20653;-56
2022/09/24 10:37:26;;;;;;;4.57;3.63;;;;;;;15.07;100.00;96368.75;4906021;29;20354;-56
2022/09/24 10:39:59;;;;;;;5.83;5.33;;;;;;;15.17;100.00;96374.66;4905857;29;20263;-56
2022/09/24 10:42:28;;;;;;;4.90;4.60;;;;;;;15.16;100.00;96372.19;4909379;29;20296;-55
2022/09/24 10:44:55;;;;;;;5.13;4.73;;;;;;;15.09;100.00;96373.91;4927486;29;20216;-53
2022/09/24 10:47:27;;;;;;;4.60;4.20;;;;;;;15.14;100.00;96368.88;4936821;29;20215;-54
2022/09/24 10:50:15;;;;;;;4.17;3.87;;;;;;;15.07;100.00;96371.41;4925749;29;20228;-56
2022/09/24 10:52:48;;;;;;;4.00;3.70;;;;;;;15.09;100.00;96368.59;4910534;29;20278;-56
2022/09/24 10:55:40;;;;;;;3.97;3.77;;;;;;;15.05;100.00;96359.28;4909671;29;20232;-56
2022/09/24 10:58:24;;;;;;;3.67;3.37;;;;;;;15.03;100.00;96358.63;4906056;29;20204;-56
2022/09/24 11:01:00;;;;;;;3.27;3.03;;;;;;;15.10;100.00;96359.56;4909290;29;20666;-55
2022/09/24 11:03:53;;;;;;;3.10;2.90;;;;;;;15.09;100.00;96363.25;4909770;29;20213;-56
2022/09/24 11:06:34;;;;;;;3.60;3.40;;;;;;;15.12;100.00;96362.91;4909753;29;20235;-56
2022/09/24 11:09:17;;;;;;;3.27;3.07;;;;;;;15.12;100.00;96357.56;4910065;29;20639;-55
2022/09/24 11:11:50;;;;;;;3.73;3.47;;;;;;;15.18;100.00;96356.84;4909535;29;20219;-55
2022/09/24 11:14:28;;;;;;;2.90;2.70;;;;;;;15.18;100.00;96367.50;4909537;29;20200;-56
2022/09/24 11:17:03;;;;;;;2.87;2.77;;;;;;;15.18;100.00;96362.19;4909628;29;20193;-56
2022/09/24 11:19:56;;;;;;;2.43;2.33;;;;;;;15.22;100.00;96363.47;4909398;29;20211;-56
2022/09/24 11:22:30;;;;;;;2.40;2.30;;;;;;;15.20;100.00;96350.34;4909712;29;20238;-54
2022/09/24 11:25:09;;;;;;;3.17;2.20;;;;;;;15.24;100.00;96353.47;4909235;29;20205;-57
2022/09/24 11:27:47;;;;;;;2.17;2.07;;;;;;;15.30;100.00;96350.91;4909427;29;20294;-55
2022/09/24 11:30:17;;;;;;;3.10;2.23;;;;;;;15.26;100.00;96351.47;4908888;29;20207;-56
2022/09/24 11:32:55;;;;;;;2.53;2.37;;;;;;;15.28;100.00;96346.78;4908958;29;20274;-56
2022/09/24 11:35:42;;;;;;;2.27;2.10;;;;;;;15.33;100.00;96344.41;4908879;29;20712;-56
2022/09/24 11:38:16;;;;;;;2.27;2.17;;;;;;;15.37;100.00;96343.06;4898535;29;20211;-56
2022/09/24 11:40:56;;;;;;;2.27;2.07;;;;;;;15.43;100.00;96335.16;4909645;29;20268;-55
2022/09/24 11:43:37;;;;;;;2.73;2.53;;;;;;;15.49;100.00;96324.81;4908574;29;20721;-57
2022/09/24 11:46:14;;;;;;;2.30;2.20;;;;;;;15.60;100.00;96325.19;4908263;29;20255;-56
2022/09/24 11:48:55;;;;;;;1.70;1.63;;;;;;;15.62;100.00;96325.88;4910360;29;20717;-56
2022/09/24 11:51:29;;;;;;;1.97;1.87;;;;;;;15.67;100.00;96326.13;4912919;29;20284;-56